Time;durP1;ratioP1;P1;durP2;ratioP2;P2;SDS_P1;SDS_P2;PMS_P1;PMS_P2;Temp;Humidity;BMP_temperature;BMP_pressure;BME280_temperature;BME280_humidity;BME280_pressure;Samples;Min_cycle;Max_cycle;Signal;HPM_P1;HPM_P2
2022/09/01 00:00:52;;;;;;;10.88;3.58;;;18.40;99.90;;;;;;5073593;28;20197;-71
2022/09/01 00:03:25;;;;;;;11.02;3.45;;;18.70;99.90;;;;;;5073114;28;20200;-71
2022/09/01 00:05:56;;;;;;;9.45;2.95;;;18.80;99.90;;;;;;5073497;28;20217;-70
2022/09/01 00:08:27;;;;;;;11.77;3.78;;;19.00;99.90;;;;;;5073522;28;20224;-71
2022/09/01 00:10:57;;;;;;;11.23;3.08;;;19.10;99.90;;;;;;5073304;28;20659;-71
2022/09/01 00:13:31;;;;;;;13.43;3.20;;;19.10;99.90;;;;;;5073156;28;20239;-71
2022/09/01 00:16:02;;;;;;;9.18;2.80;;;19.00;99.90;;;;;;5073496;28;20254;-70
2022/09/01 00:18:36;;;;;;;9.32;2.95;;;18.90;99.90;;;;;;5073731;28;20216;-70
2022/09/01 00:21:06;;;;;;;12.77;3.22;;;18.90;99.90;;;;;;5073332;28;20192;-72
2022/09/01 00:23:37;;;;;;;10.90;3.10;;;18.90;99.90;;;;;;5073002;28;20217;-70
2022/09/01 00:26:09;;;;;;;7.05;2.40;;;18.80;99.90;;;;;;5073111;28;20217;-70
2022/09/01 00:28:40;;;;;;;11.52;2.95;;;18.60;99.90;;;;;;5073330;28;20185;-71
2022/09/01 00:31:13;;;;;;;12.18;2.63;;;18.50;99.90;;;;;;5073015;28;20193;-71
2022/09/01 00:33:46;;;;;;;10.73;2.60;;;18.50;99.90;;;;;;5073624;28;20232;-70
2022/09/01 00:36:17;;;;;;;7.03;2.47;;;18.60;99.90;;;;;;5073206;28;20189;-71
2022/09/01 00:38:48;;;;;;;10.68;2.63;;;18.80;99.90;;;;;;5073178;28;20216;-71
2022/09/01 00:41:20;;;;;;;6.25;2.33;;;19.00;99.90;;;;;;5073357;28;20195;-71
2022/09/01 00:43:52;;;;;;;6.55;2.42;;;18.90;99.90;;;;;;5053090;28;20208;-71
2022/09/01 00:46:25;;;;;;;10.98;2.28;;;18.80;99.90;;;;;;5053651;28;20227;-71
2022/09/01 00:49:02;;;;;;;8.82;2.33;;;18.60;99.90;;;;;;5057162;28;20196;-70
2022/09/01 00:51:36;;;;;;;9.70;2.50;;;18.50;99.90;;;;;;5057055;28;20189;-70
2022/09/01 00:54:10;;;;;;;7.50;2.15;;;18.40;99.90;;;;;;5056937;28;20192;-71
2022/09/01 00:56:42;;;;;;;8.98;2.13;;;18.40;99.90;;;;;;5056968;28;20221;-70
2022/09/01 00:59:14;;;;;;;9.23;2.17;;;18.60;99.90;;;;;;5056788;28;20202;-70
2022/09/01 01:01:45;;;;;;;9.13;2.50;;;18.90;99.90;;;;;;5056896;28;20189;-71
2022/09/01 01:04:18;;;;;;;8.02;2.38;;;18.90;99.90;;;;;;5056911;28;20189;-70
2022/09/01 01:06:57;;;;;;;12.18;2.45;;;19.20;99.90;;;;;;5056738;28;20711;-70
2022/09/01 01:09:29;;;;;;;8.35;2.30;;;19.20;99.90;;;;;;5056657;28;20189;-70
2022/09/01 01:12:00;;;;;;;8.05;2.17;;;19.20;99.90;;;;;;5056685;28;20185;-71
2022/09/01 01:14:31;;;;;;;6.15;2.03;;;19.10;99.90;;;;;;5017007;28;20199;-70
2022/09/01 01:17:03;;;;;;;9.13;2.40;;;18.90;99.90;;;;;;5016870;28;20231;-71
2022/09/01 01:25:27;;;;;;;7.25;2.33;;;18.60;99.90;;;;;;5036144;28;20229;-73
2022/09/01 01:28:08;;;;;;;10.27;2.60;;;18.90;99.90;;;;;;5036765;28;20191;-73
2022/09/01 01:30:39;;;;;;;10.02;2.70;;;19.10;99.90;;;;;;5036239;28;20201;-72
2022/09/01 01:33:10;;;;;;;6.82;2.70;;;19.20;99.90;;;;;;5036359;28;20197;-73
2022/09/01 01:35:41;;;;;;;8.20;2.28;;;19.20;99.90;;;;;;5036431;28;20194;-72
2022/09/01 01:38:13;;;;;;;8.68;3.15;;;19.30;99.90;;;;;;5036269;28;20226;-72
2022/09/01 01:40:46;;;;;;;8.98;3.42;;;19.30;99.90;;;;;;5036205;28;20190;-73
2022/09/01 01:43:20;;;;;;;11.63;3.25;;;19.20;99.90;;;;;;5035352;28;20186;-73
2022/09/01 01:45:53;;;;;;;9.90;3.28;;;19.20;99.90;;;;;;5035343;28;20214;-72
2022/09/01 01:48:27;;;;;;;8.25;3.00;;;19.10;99.90;;;;;;5035865;28;20221;-71
2022/09/01 01:50:58;;;;;;;8.63;3.30;;;19.10;99.90;;;;;;5035773;28;20205;-73
2022/09/01 01:53:29;;;;;;;9.00;3.15;;;19.00;99.90;;;;;;5035468;28;20189;-73
2022/09/01 01:56:02;;;;;;;6.55;2.92;;;19.00;99.90;;;;;;5035434;28;20690;-72
2022/09/01 01:58:33;;;;;;;9.45;2.92;;;19.30;99.90;;;;;;5032269;28;20193;-73
2022/09/01 02:01:05;;;;;;;9.30;3.10;;;19.70;99.90;;;;;;5035646;28;20183;-72
2022/09/01 02:03:37;;;;;;;8.82;2.90;;;20.00;99.90;;;;;;5035430;28;20647;-71
2022/09/01 02:06:10;;;;;;;7.47;3.00;;;20.10;99.90;;;;;;5035477;28;20682;-73
2022/09/01 02:08:42;;;;;;;6.93;2.55;;;20.10;99.90;;;;;;5035144;28;20274;-73
2022/09/01 02:11:16;;;;;;;8.95;2.80;;;20.30;99.90;;;;;;5035180;28;20265;-72
2022/09/01 02:13:48;;;;;;;8.15;2.92;;;20.30;99.90;;;;;;5063903;28;20221;-72
2022/09/01 02:16:19;;;;;;;9.20;2.78;;;20.00;99.90;;;;;;5074891;28;20193;-73
2022/09/01 02:18:50;;;;;;;9.32;2.50;;;19.90;99.90;;;;;;5075612;28;20300;-73
2022/09/01 02:21:24;;;;;;;5.53;2.28;;;19.80;99.90;;;;;;5075381;28;20196;-73
2022/09/01 02:23:58;;;;;;;8.50;2.60;;;19.70;99.90;;;;;;5073223;28;20213;-71
2022/09/01 02:26:32;;;;;;;7.93;2.80;;;19.90;99.90;;;;;;5071700;28;20211;-73
2022/09/01 02:29:04;;;;;;;12.07;3.00;;;20.00;99.90;;;;;;5075139;28;20189;-73
2022/09/01 02:31:38;;;;;;;6.47;2.60;;;20.00;99.90;;;;;;5074989;28;20239;-72
2022/09/01 02:34:09;;;;;;;7.97;2.80;;;20.10;99.90;;;;;;5071926;28;20196;-71
2022/09/01 02:36:43;;;;;;;11.32;3.38;;;20.30;99.90;;;;;;5074596;28;20188;-72
2022/09/01 02:39:14;;;;;;;6.25;3.20;;;20.40;99.90;;;;;;5074824;28;20231;-73
2022/09/01 02:41:47;;;;;;;10.38;3.67;;;20.60;99.90;;;;;;5074277;28;20189;-73
2022/09/01 02:44:20;;;;;;;8.77;3.17;;;20.80;99.90;;;;;;5074359;28;20240;-71
2022/09/01 02:46:52;;;;;;;6.25;2.65;;;20.90;99.90;;;;;;5073977;28;20570;-72
2022/09/01 02:49:27;;;;;;;8.98;2.90;;;20.70;99.90;;;;;;5074294;28;20189;-72
2022/09/01 02:52:00;;;;;;;8.50;3.00;;;20.50;99.90;;;;;;5073502;28;20196;-72
2022/09/01 02:54:31;;;;;;;8.63;3.08;;;20.40;99.90;;;;;;5071374;28;20247;-72
2022/09/01 02:57:04;;;;;;;8.10;3.08;;;20.10;99.90;;;;;;5074114;28;20189;-72
2022/09/01 02:59:36;;;;;;;7.70;2.42;;;19.90;99.90;;;;;;5074383;28;20181;-72
2022/09/01 03:02:07;;;;;;;9.27;2.22;;;19.80;99.90;;;;;;5074168;28;20264;-72
2022/09/01 03:04:38;;;;;;;9.75;2.70;;;19.70;99.90;;;;;;5074027;28;20656;-73
2022/09/01 03:07:09;;;;;;;5.65;1.85;;;19.60;99.90;;;;;;5073769;28;20209;-72
2022/09/01 03:09:40;;;;;;;11.48;2.50;;;19.60;99.90;;;;;;5073410;28;20240;-72
2022/09/01 03:12:13;;;;;;;9.32;2.60;;;19.70;99.90;;;;;;5073589;28;20684;-72
2022/09/01 03:14:44;;;;;;;6.63;2.13;;;19.90;99.90;;;;;;5074145;28;20199;-73
2022/09/01 03:17:14;;;;;;;8.40;2.30;;;19.90;99.90;;;;;;5073746;28;20189;-71
2022/09/01 03:19:45;;;;;;;8.10;2.13;;;19.80;99.90;;;;;;5074168;28;20188;-72
2022/09/01 03:22:16;;;;;;;7.68;2.22;;;19.70;99.90;;;;;;5073607;28;20193;-71
2022/09/01 03:24:47;;;;;;;5.75;1.95;;;19.60;99.90;;;;;;5073107;28;20212;-73
2022/09/01 03:27:19;;;;;;;8.18;2.35;;;19.70;99.90;;;;;;5073361;28;20540;-72
2022/09/01 03:29:50;;;;;;;8.05;2.55;;;19.80;99.90;;;;;;5073156;28;20213;-72
2022/09/01 03:32:21;;;;;;;12.68;2.55;;;19.90;99.90;;;;;;5073830;28;20186;-72
2022/09/01 03:34:52;;;;;;;8.45;2.30;;;19.80;99.90;;;;;;5073121;28;20189;-72
2022/09/01 03:37:22;;;;;;;12.25;2.30;;;19.70;99.90;;;;;;5073131;28;20247;-71
2022/09/01 03:39:53;;;;;;;9.75;2.30;;;19.60;99.90;;;;;;5071655;28;20185;-72
2022/09/01 03:42:28;;;;;;;10.30;2.10;;;19.50;99.90;;;;;;5073660;28;20189;-72
2022/09/01 03:44:59;;;;;;;11.65;2.25;;;19.50;99.90;;;;;;5072756;28;20189;-71
2022/09/01 03:47:29;;;;;;;7.32;2.22;;;19.70;99.90;;;;;;5062331;28;20213;-72
2022/09/01 03:50:00;;;;;;;8.70;2.47;;;19.70;99.90;;;;;;5072919;28;20659;-72
2022/09/01 03:52:31;;;;;;;9.88;2.17;;;19.50;99.90;;;;;;5070228;28;20223;-71
2022/09/01 03:55:02;;;;;;;8.88;2.28;;;19.70;99.90;;;;;;5072846;28;20201;-71
2022/09/01 03:57:36;;;;;;;11.80;2.33;;;19.80;99.90;;;;;;5062965;28;20547;-70
2022/09/01 04:00:10;;;;;;;11.65;2.40;;;19.90;99.90;;;;;;5073072;28;20185;-71
2022/09/01 04:02:41;;;;;;;11.73;2.30;;;19.90;99.90;;;;;;5073022;28;20276;-72
2022/09/01 04:05:12;;;;;;;7.43;2.20;;;19.90;99.90;;;;;;5072892;28;20569;-70
2022/09/01 04:07:47;;;;;;;9.93;2.20;;;19.90;99.90;;;;;;5072998;28;20590;-71
2022/09/01 04:10:19;;;;;;;9.55;2.10;;;19.90;99.90;;;;;;5073134;28;20235;-70
2022/09/01 04:12:55;;;;;;;11.95;2.75;;;20.10;99.90;;;;;;5072872;28;20224;-70
2022/09/01 04:15:26;;;;;;;10.38;2.00;;;20.00;99.90;;;;;;5073238;28;20185;-70
2022/09/01 04:18:08;;;;;;;10.98;2.65;;;20.00;99.90;;;;;;5072347;28;20181;-71
2022/09/01 04:20:48;;;;;;;11.60;2.15;;;20.20;99.90;;;;;;5072353;28;20185;-71
2022/09/01 04:23:25;;;;;;;12.93;2.22;;;20.10;99.90;;;;;;5072265;28;20200;-70
2022/09/01 04:25:58;;;;;;;9.13;2.53;;;20.20;99.90;;;;;;5071962;28;20706;-72
2022/09/01 04:28:35;;;;;;;10.20;2.33;;;20.10;99.90;;;;;;5073077;28;20187;-72
2022/09/01 04:31:08;;;;;;;11.10;2.22;;;20.10;99.90;;;;;;5073194;28;20189;-72
2022/09/01 04:33:40;;;;;;;10.88;1.92;;;20.00;99.90;;;;;;5072383;28;20207;-71
2022/09/01 04:36:18;;;;;;;9.43;2.25;;;20.00;99.90;;;;;;5072914;28;20192;-72
2022/09/01 04:38:49;;;;;;;8.95;1.83;;;20.00;99.90;;;;;;5072522;28;20280;-71
2022/09/01 04:41:20;;;;;;;6.30;1.67;;;20.10;99.90;;;;;;5073047;28;20640;-71
2022/09/01 04:43:55;;;;;;;9.48;2.25;;;20.00;99.90;;;;;;5072084;28;20189;-70
2022/09/01 04:46:27;;;;;;;11.88;1.90;;;20.00;99.90;;;;;;5072887;28;20208;-71
2022/09/01 04:48:58;;;;;;;13.70;2.17;;;20.10;99.90;;;;;;5071649;28;20197;-72
2022/09/01 04:51:29;;;;;;;8.75;1.95;;;20.10;99.90;;;;;;5072201;28;20186;-70
2022/09/01 04:54:00;;;;;;;8.65;1.70;;;20.20;99.90;;;;;;5072298;28;20181;-70
2022/09/01 04:56:34;;;;;;;10.20;1.80;;;20.10;99.90;;;;;;5070206;28;20686;-71
2022/09/01 04:59:07;;;;;;;9.57;1.77;;;20.00;99.90;;;;;;5072451;28;20189;-71
2022/09/01 05:01:42;;;;;;;10.00;1.73;;;20.00;99.90;;;;;;5072317;28;20231;-70
2022/09/01 05:04:13;;;;;;;7.05;1.67;;;19.90;99.90;;;;;;5072900;28;20566;-71
2022/09/01 05:06:47;;;;;;;8.57;1.98;;;19.90;99.90;;;;;;5072006;28;20603;-71
2022/09/01 05:09:19;;;;;;;12.32;2.20;;;19.90;99.90;;;;;;5072488;28;20191;-70
2022/09/01 05:11:50;;;;;;;9.40;2.05;;;19.80;99.90;;;;;;5072155;28;20192;-71
2022/09/01 05:14:23;;;;;;;7.13;1.80;;;19.80;99.90;;;;;;5072045;28;20227;-72
2022/09/01 05:16:58;;;;;;;8.82;1.75;;;19.80;99.90;;;;;;5071220;28;20189;-70
2022/09/01 05:19:29;;;;;;;10.85;1.83;;;19.90;99.90;;;;;;5072439;28;20185;-70
2022/09/01 05:22:00;;;;;;;10.70;1.98;;;19.90;99.90;;;;;;5072468;28;20640;-72
2022/09/01 05:24:33;;;;;;;10.70;2.10;;;19.90;99.90;;;;;;5072502;28;20221;-71
2022/09/01 05:27:05;;;;;;;9.52;2.22;;;19.80;99.90;;;;;;5072581;28;20754;-70
2022/09/01 05:29:39;;;;;;;9.20;2.47;;;19.80;99.90;;;;;;5072583;28;20185;-69
2022/09/01 05:32:11;;;;;;;7.32;2.13;;;19.70;99.90;;;;;;5072567;28;20199;-71
2022/09/01 05:34:44;;;;;;;8.07;2.00;;;19.70;99.90;;;;;;5075212;28;20562;-69
2022/09/01 05:37:15;;;;;;;9.00;1.60;;;19.70;99.90;;;;;;5076294;28;20204;-71
2022/09/01 05:39:46;;;;;;;6.28;1.63;;;19.60;99.90;;;;;;5076642;28;20197;-70
2022/09/01 05:42:17;;;;;;;7.25;2.15;;;19.50;99.90;;;;;;5076084;28;20189;-70
2022/09/01 05:44:50;;;;;;;8.13;1.67;;;19.40;99.90;;;;;;5076220;28;20262;-70
2022/09/01 05:47:20;;;;;;;10.20;1.67;;;19.30;99.90;;;;;;5076079;28;20221;-70
2022/09/01 05:49:52;;;;;;;6.03;1.80;;;19.20;99.90;;;;;;5075741;28;20193;-70
2022/09/01 05:52:25;;;;;;;8.02;1.60;;;19.10;99.90;;;;;;5075997;28;20378;-70
2022/09/01 05:54:58;;;;;;;7.18;1.73;;;19.10;99.90;;;;;;5075924;28;20633;-70
2022/09/01 05:57:34;;;;;;;6.90;1.52;;;19.00;99.90;;;;;;5076285;28;20246;-70
2022/09/01 06:00:09;;;;;;;7.38;1.80;;;18.90;99.90;;;;;;5075849;28;20195;-70
2022/09/01 06:02:41;;;;;;;9.25;1.90;;;18.90;99.90;;;;;;5075697;28;20204;-70
2022/09/01 06:05:14;;;;;;;5.95;1.48;;;18.80;99.90;;;;;;5075641;28;20193;-70
2022/09/01 06:07:44;;;;;;;8.15;1.50;;;18.90;99.90;;;;;;5075669;28;20220;-71
2022/09/01 06:10:15;;;;;;;8.75;1.30;;;19.10;99.90;;;;;;5075612;28;20203;-70
2022/09/01 06:12:46;;;;;;;7.35;1.38;;;19.10;99.90;;;;;;5075460;28;20718;-70
2022/09/01 06:15:19;;;;;;;7.22;1.40;;;19.10;99.90;;;;;;5075526;28;20259;-70
2022/09/01 06:17:51;;;;;;;11.00;1.60;;;19.00;99.90;;;;;;5075590;28;20276;-70
2022/09/01 06:20:22;;;;;;;9.48;1.58;;;19.00;99.90;;;;;;5075275;28;20198;-70
2022/09/01 06:22:53;;;;;;;8.25;1.73;;;19.00;99.90;;;;;;5075538;28;20558;-70
2022/09/01 06:25:29;;;;;;;8.95;1.60;;;19.00;99.90;;;;;;5074953;28;20295;-70
2022/09/01 06:28:03;;;;;;;11.23;1.60;;;18.90;99.90;;;;;;5075504;28;20691;-71
2022/09/01 06:30:35;;;;;;;7.75;1.33;;;18.80;99.90;;;;;;5075150;28;20219;-71
2022/09/01 06:33:08;;;;;;;11.45;1.63;;;18.70;99.90;;;;;;5074910;28;20204;-71
2022/09/01 06:35:39;;;;;;;6.75;1.63;;;18.60;99.90;;;;;;5075215;28;20185;-71
2022/09/01 06:38:10;;;;;;;7.53;1.33;;;18.50;99.90;;;;;;5075202;28;20200;-71
2022/09/01 06:40:41;;;;;;;8.50;1.42;;;18.40;99.90;;;;;;5075369;28;20276;-71
2022/09/01 06:43:14;;;;;;;7.20;1.45;;;18.30;99.90;;;;;;5074955;28;20189;-72
2022/09/01 06:45:53;;;;;;;8.23;1.63;;;18.30;99.90;;;;;;5074971;28;20204;-71
2022/09/01 06:48:24;;;;;;;10.75;1.52;;;18.30;99.90;;;;;;5074916;28;20231;-71
2022/09/01 06:50:54;;;;;;;14.48;1.90;;;18.40;99.90;;;;;;5074754;28;20232;-72
2022/09/01 06:53:25;;;;;;;6.85;1.58;;;18.40;99.90;;;;;;5074761;28;20215;-71
2022/09/01 06:55:56;;;;;;;8.35;1.63;;;18.40;99.90;;;;;;5074769;28;20189;-71
2022/09/01 06:58:28;;;;;;;10.77;1.85;;;18.40;99.90;;;;;;5075037;28;20196;-71
2022/09/01 07:01:01;;;;;;;8.85;1.40;;;18.40;99.90;;;;;;5074627;28;20247;-71
2022/09/01 07:03:32;;;;;;;9.93;1.70;;;18.30;99.90;;;;;;5074611;28;20211;-69
2022/09/01 07:06:06;;;;;;;7.82;1.50;;;18.20;99.90;;;;;;5074579;28;20186;-72
2022/09/01 07:08:38;;;;;;;9.50;1.40;;;18.10;99.90;;;;;;5074264;28;20223;-70
2022/09/01 07:11:10;;;;;;;11.25;1.70;;;18.10;99.90;;;;;;5074454;28;20247;-71
2022/09/01 07:13:41;;;;;;;11.35;1.90;;;18.00;99.90;;;;;;5074333;28;20315;-71
2022/09/01 07:16:22;;;;;;;7.28;1.35;;;17.90;99.90;;;;;;5074197;28;20706;-71
2022/09/01 07:18:55;;;;;;;10.90;1.80;;;17.90;99.90;;;;;;5074330;28;20189;-71
2022/09/01 07:21:26;;;;;;;10.43;1.92;;;17.80;99.90;;;;;;5074266;28;20228;-72
2022/09/01 07:23:57;;;;;;;10.13;1.77;;;17.70;99.90;;;;;;5073846;28;20213;-73
2022/09/01 07:26:27;;;;;;;12.88;1.90;;;17.70;99.90;;;;;;5074088;28;20192;-70
2022/09/01 07:28:59;;;;;;;10.18;1.55;;;17.70;99.90;;;;;;5074090;28;20189;-70
2022/09/01 07:31:34;;;;;;;9.82;1.70;;;17.60;99.90;;;;;;5073796;28;20203;-71
2022/09/01 07:34:12;;;;;;;12.48;1.55;;;17.60;99.90;;;;;;5073968;28;20241;-72
2022/09/01 07:36:43;;;;;;;14.35;1.70;;;17.60;99.90;;;;;;5073979;28;20189;-71
2022/09/01 07:39:14;;;;;;;10.18;1.80;;;17.50;99.90;;;;;;5074124;28;20648;-71
2022/09/01 07:41:45;;;;;;;13.27;2.00;;;17.50;99.90;;;;;;5073771;28;20326;-72
2022/09/01 07:44:16;;;;;;;9.43;1.60;;;17.40;99.90;;;;;;5074032;28;20195;-72
2022/09/01 07:46:50;;;;;;;9.13;1.60;;;17.40;99.90;;;;;;5073407;28;20195;-72
2022/09/01 07:49:22;;;;;;;12.10;1.75;;;17.40;99.90;;;;;;5073677;28;20204;-71
2022/09/01 07:51:53;;;;;;;8.52;1.35;;;17.30;99.90;;;;;;5073600;28;20193;-70
2022/09/01 07:54:24;;;;;;;7.00;1.42;;;17.30;99.90;;;;;;5073659;28;20197;-70
2022/09/01 07:56:55;;;;;;;10.35;1.70;;;17.30;99.90;;;;;;5072979;28;20193;-70
2022/09/01 07:59:28;;;;;;;7.70;1.52;;;17.30;99.90;;;;;;5073572;28;20591;-70
2022/09/01 08:02:04;;;;;;;12.13;1.70;;;17.30;99.90;;;;;;5073670;28;20223;-72
2022/09/01 08:04:35;;;;;;;7.18;1.42;;;17.20;99.90;;;;;;5073817;28;20193;-70
2022/09/01 08:07:05;;;;;;;8.75;1.70;;;17.20;99.90;;;;;;5073330;28;20672;-70
2022/09/01 08:09:39;;;;;;;11.85;1.58;;;17.20;99.90;;;;;;5073283;28;20565;-70
2022/09/01 08:12:10;;;;;;;13.13;2.10;;;17.20;99.90;;;;;;5073081;28;20193;-69
2022/09/01 08:14:41;;;;;;;11.88;1.77;;;17.10;99.90;;;;;;5073128;28;20205;-71
2022/09/01 08:17:16;;;;;;;13.52;1.70;;;17.20;99.90;;;;;;5073511;28;20201;-69
2022/09/01 08:19:47;;;;;;;10.38;1.73;;;17.10;99.90;;;;;;5073246;28;20193;-70
2022/09/01 08:22:22;;;;;;;10.05;1.95;;;17.10;99.90;;;;;;5073340;28;20189;-71
2022/09/01 08:24:52;;;;;;;10.90;1.90;;;17.10;99.90;;;;;;5072938;28;20220;-70
2022/09/01 08:27:23;;;;;;;14.43;2.05;;;17.10;99.90;;;;;;5073204;28;20211;-70
2022/09/01 08:29:54;;;;;;;6.55;1.70;;;17.00;99.90;;;;;;5072937;28;20189;-70
2022/09/01 08:32:27;;;;;;;11.57;1.90;;;17.00;99.90;;;;;;5073201;28;20193;-69
2022/09/01 08:34:57;;;;;;;11.93;2.00;;;17.00;99.90;;;;;;5073161;28;20200;-70
2022/09/01 08:37:29;;;;;;;13.05;1.85;;;17.00;99.90;;;;;;5073262;28;20326;-70
2022/09/01 08:39:59;;;;;;;11.00;2.10;;;17.00;99.90;;;;;;5073194;28;20279;-70
2022/09/01 08:42:45;;;;;;;9.35;1.60;;;17.00;99.90;;;;;;5073063;28;20211;-70
2022/09/01 08:45:25;;;;;;;11.43;2.00;;;16.90;99.90;;;;;;5072920;28;20565;-70
2022/09/01 08:48:00;;;;;;;12.45;2.25;;;16.90;99.90;;;;;;5073055;28;20223;-70
2022/09/01 08:50:31;;;;;;;12.07;2.03;;;16.90;99.90;;;;;;5072970;28;20191;-70
2022/09/01 08:53:08;;;;;;;11.55;1.77;;;16.90;99.90;;;;;;5073052;28;20548;-70
2022/09/01 08:55:43;;;;;;;10.85;1.80;;;16.90;99.90;;;;;;5073116;28;20188;-70
2022/09/01 08:58:17;;;;;;;11.85;2.00;;;16.90;99.90;;;;;;5072874;28;20196;-71
2022/09/01 09:00:53;;;;;;;11.05;1.80;;;16.90;99.90;;;;;;5073028;28;20191;-69
2022/09/01 09:03:33;;;;;;;13.70;2.33;;;16.90;99.90;;;;;;5072913;28;20199;-69
2022/09/01 09:06:15;;;;;;;10.43;1.90;;;16.90;99.90;;;;;;5072975;28;20189;-70
2022/09/01 09:08:57;;;;;;;10.93;1.95;;;16.90;99.90;;;;;;5075560;28;20217;-71
2022/09/01 09:11:52;;;;;;;13.20;2.10;;;16.90;99.90;;;;;;5074066;28;20706;-70
2022/09/01 09:14:39;;;;;;;6.38;1.52;;;16.90;99.90;;;;;;5076322;28;20236;-70
2022/09/01 09:17:11;;;;;;;9.07;1.75;;;16.90;99.90;;;;;;5076588;28;20596;-70
2022/09/01 09:19:45;;;;;;;13.05;1.70;;;16.90;99.90;;;;;;5076630;28;20188;-70
2022/09/01 09:22:18;;;;;;;13.38;1.67;;;16.90;99.90;;;;;;5076605;28;20228;-70
2022/09/01 09:24:54;;;;;;;13.73;2.10;;;16.90;99.90;;;;;;5075851;28;20578;-70
2022/09/01 09:27:26;;;;;;;10.35;1.88;;;16.90;99.90;;;;;;5076263;28;20283;-69
2022/09/01 09:29:58;;;;;;;10.00;1.70;;;16.90;99.90;;;;;;5076175;28;20189;-69
2022/09/01 09:32:50;;;;;;;9.20;1.75;;;16.90;99.90;;;;;;5076274;28;20185;-70
2022/09/01 09:35:35;;;;;;;11.82;1.70;;;17.00;99.90;;;;;;5076322;28;20192;-70
2022/09/01 09:38:27;;;;;;;10.05;1.55;;;17.00;99.90;;;;;;5076303;28;20546;-71
2022/09/01 09:41:03;;;;;;;6.93;1.73;;;17.00;99.90;;;;;;5076291;28;20552;-70
2022/09/01 09:43:39;;;;;;;10.98;2.03;;;17.00;99.90;;;;;;5076362;28;20189;-70
2022/09/01 09:46:26;;;;;;;8.25;1.52;;;17.00;99.90;;;;;;5076496;28;20189;-71
2022/09/01 09:49:18;;;;;;;11.38;1.90;;;17.00;99.90;;;;;;5075673;28;20225;-69
2022/09/01 09:51:52;;;;;;;11.25;1.65;;;17.00;99.90;;;;;;5076044;28;20189;-70
2022/09/01 09:54:25;;;;;;;8.65;1.58;;;16.90;99.90;;;;;;5076061;28;20198;-70
2022/09/01 09:57:12;;;;;;;6.95;1.80;;;17.00;99.90;;;;;;5075898;28;20189;-69
2022/09/01 09:59:46;;;;;;;8.60;1.95;;;16.90;99.90;;;;;;5075987;28;20197;-71
2022/09/01 10:02:31;;;;;;;10.30;1.80;;;16.90;99.90;;;;;;5075816;28;20197;-70
2022/09/01 10:05:12;;;;;;;8.27;1.83;;;16.90;99.90;;;;;;5075830;28;20189;-70
2022/09/01 10:07:45;;;;;;;10.20;1.77;;;16.90;99.90;;;;;;5075730;28;20217;-70
2022/09/01 10:10:30;;;;;;;10.32;1.80;;;16.90;99.90;;;;;;5075577;28;20197;-70
2022/09/01 10:13:02;;;;;;;10.85;1.83;;;16.90;99.90;;;;;;5075398;28;20232;-70
2022/09/01 10:15:36;;;;;;;13.30;1.83;;;16.90;99.90;;;;;;5075633;28;20197;-70
2022/09/01 10:18:13;;;;;;;15.10;1.90;;;16.90;99.90;;;;;;5075447;28;20629;-70
2022/09/01 10:20:50;;;;;;;10.95;1.58;;;16.80;99.90;;;;;;5074881;28;20189;-69
2022/09/01 10:23:23;;;;;;;8.55;1.50;;;16.80;99.90;;;;;;5075115;28;20212;-70
2022/09/01 10:25:57;;;;;;;12.27;1.73;;;16.80;99.90;;;;;;5075076;28;20264;-70
2022/09/01 10:28:29;;;;;;;13.95;1.95;;;16.80;99.90;;;;;;5075099;28;20217;-70
2022/09/01 10:31:01;;;;;;;10.30;1.60;;;16.80;99.90;;;;;;5075096;28;20188;-70
2022/09/01 10:33:32;;;;;;;9.73;1.92;;;16.80;99.90;;;;;;5075115;28;20523;-71
2022/09/01 10:36:02;;;;;;;12.30;1.80;;;16.80;99.90;;;;;;5075178;28;20659;-71
2022/09/01 10:38:35;;;;;;;9.65;2.03;;;16.80;99.90;;;;;;5075068;28;20763;-70
2022/09/01 10:41:09;;;;;;;14.60;2.17;;;16.70;99.90;;;;;;5074883;28;20199;-70
2022/09/01 10:43:42;;;;;;;14.27;2.25;;;16.70;99.90;;;;;;5055403;28;20197;-70
2022/09/01 10:46:44;;;;;;;11.95;1.70;;;16.80;99.90;;;;;;5055078;28;20186;-71
2022/09/01 10:49:36;;;;;;;13.20;2.30;;;16.70;99.90;;;;;;5072037;28;20223;-70
2022/09/01 10:52:07;;;;;;;10.38;1.60;;;16.70;99.90;;;;;;5066423;28;20660;-70
2022/09/01 10:55:01;;;;;;;11.43;1.85;;;16.70;99.90;;;;;;5074628;28;20534;-71
2022/09/01 10:57:49;;;;;;;13.63;1.67;;;16.70;99.90;;;;;;5074050;28;20652;-70
2022/09/01 11:00:48;;;;;;;11.98;1.85;;;16.70;99.90;;;;;;5073091;28;20189;-71
2022/09/01 11:03:53;;;;;;;9.82;1.52;;;16.70;99.90;;;;;;5074304;28;20189;-70
2022/09/01 11:07:00;;;;;;;11.05;1.63;;;16.70;99.90;;;;;;5070387;28;20218;-71
2022/09/01 11:09:34;;;;;;;9.55;1.65;;;16.60;99.90;;;;;;5071110;28;20269;-70
2022/09/01 11:12:32;;;;;;;10.95;2.38;;;16.60;99.90;;;;;;5073702;28;20185;-70
2022/09/01 11:15:05;;;;;;;11.55;1.80;;;16.70;99.90;;;;;;5073864;28;20196;-71
2022/09/01 11:17:38;;;;;;;12.35;2.60;;;16.60;99.90;;;;;;5073648;28;20194;-70
2022/09/01 11:20:23;;;;;;;13.27;1.85;;;16.60;99.90;;;;;;5070885;28;20181;-70
2022/09/01 11:23:04;;;;;;;8.77;1.83;;;16.60;99.90;;;;;;5073394;28;20204;-70
2022/09/01 11:25:43;;;;;;;9.82;2.20;;;16.60;99.90;;;;;;5073837;28;20220;-70
2022/09/01 11:28:45;;;;;;;13.40;2.25;;;16.60;99.90;;;;;;5074358;28;20703;-70
2022/09/01 11:31:40;;;;;;;11.75;1.90;;;16.50;99.90;;;;;;5070823;28;20199;-70
2022/09/01 11:34:17;;;;;;;10.57;2.00;;;16.50;99.90;;;;;;5059970;28;20695;-69
2022/09/01 11:37:01;;;;;;;15.77;2.00;;;16.60;99.90;;;;;;5073430;28;20287;-70
2022/09/01 11:39:42;;;;;;;12.88;1.92;;;16.50;99.90;;;;;;5070870;28;20199;-70
2022/09/01 11:42:19;;;;;;;11.30;1.80;;;16.50;99.90;;;;;;5073371;28;20189;-71
2022/09/01 11:44:56;;;;;;;7.72;1.65;;;16.50;99.90;;;;;;5073111;28;20189;-72
2022/09/01 11:47:32;;;;;;;9.82;1.67;;;16.50;99.90;;;;;;5073160;28;20250;-71
2022/09/01 11:50:06;;;;;;;10.35;1.88;;;16.40;99.90;;;;;;5069193;28;20214;-72
2022/09/01 11:52:40;;;;;;;9.50;1.77;;;16.40;99.90;;;;;;5070904;28;20199;-72
2022/09/01 11:55:12;;;;;;;9.57;1.73;;;16.40;99.90;;;;;;5070552;28;20187;-72
2022/09/01 11:57:43;;;;;;;9.85;1.77;;;16.40;99.90;;;;;;5072875;28;20185;-72
2022/09/01 12:00:16;;;;;;;7.97;1.55;;;16.40;99.90;;;;;;5073589;28;20203;-72
2022/09/01 12:02:50;;;;;;;8.95;1.77;;;16.40;99.90;;;;;;5072991;28;20197;-72
2022/09/01 12:05:32;;;;;;;7.93;1.95;;;16.40;99.90;;;;;;5072980;28;20185;-72
2022/09/01 12:08:07;;;;;;;11.85;1.90;;;16.40;99.90;;;;;;5072892;28;20185;-71
2022/09/01 12:10:39;;;;;;;7.57;1.55;;;16.30;99.90;;;;;;5062873;28;20198;-72
2022/09/01 12:13:12;;;;;;;9.90;1.60;;;16.30;99.90;;;;;;5069883;28;20231;-72
2022/09/01 12:15:44;;;;;;;11.15;1.55;;;16.30;99.90;;;;;;5072823;28;20191;-72
2022/09/01 12:18:26;;;;;;;14.55;1.90;;;16.30;99.90;;;;;;5072567;28;20185;-72
2022/09/01 12:20:59;;;;;;;6.95;1.50;;;16.30;99.90;;;;;;5072609;28;20193;-72
2022/09/01 12:23:32;;;;;;;8.98;1.70;;;16.30;99.90;;;;;;5072509;28;20212;-72
2022/09/01 12:26:06;;;;;;;11.15;1.70;;;16.30;99.90;;;;;;5072874;28;20192;-72
2022/09/01 12:28:38;;;;;;;11.95;2.25;;;16.20;99.90;;;;;;5062492;28;20212;-72
2022/09/01 12:31:14;;;;;;;13.02;1.90;;;16.20;99.90;;;;;;5073018;28;20234;-72
2022/09/01 12:33:48;;;;;;;8.27;1.55;;;16.10;99.90;;;;;;5072716;28;20195;-71
2022/09/01 12:36:29;;;;;;;9.77;1.70;;;16.10;99.90;;;;;;5072469;28;20542;-71
2022/09/01 12:39:21;;;;;;;8.20;1.75;;;16.10;99.90;;;;;;5072686;28;20659;-72
2022/09/01 12:42:04;;;;;;;12.38;2.08;;;16.10;99.90;;;;;;5072336;28;20193;-72
2022/09/01 12:44:45;;;;;;;12.15;1.77;;;16.10;99.90;;;;;;5066486;28;20203;-71
2022/09/01 12:47:37;;;;;;;9.15;1.73;;;16.10;99.90;;;;;;5074726;28;20226;-72
2022/09/01 12:50:31;;;;;;;6.50;1.83;;;16.10;99.90;;;;;;5076346;28;20749;-71
2022/09/01 12:53:04;;;;;;;9.77;1.90;;;16.00;99.90;;;;;;5076455;28;20214;-71
2022/09/01 12:55:37;;;;;;;9.68;1.85;;;16.00;99.90;;;;;;5076263;28;20188;-71
2022/09/01 12:58:09;;;;;;;12.80;2.00;;;16.00;99.90;;;;;;5073628;28;20193;-72
2022/09/01 13:00:56;;;;;;;8.35;1.77;;;16.00;99.90;;;;;;5076355;28;20181;-71
2022/09/01 13:03:28;;;;;;;9.35;1.70;;;15.90;99.90;;;;;;5076656;28;20185;-72
2022/09/01 13:06:02;;;;;;;9.65;2.33;;;15.90;99.90;;;;;;5076472;28;20264;-72
2022/09/01 13:08:33;;;;;;;14.25;2.17;;;15.90;99.90;;;;;;5076272;28;20779;-72
2022/09/01 13:11:07;;;;;;;8.88;1.80;;;15.90;99.90;;;;;;5072595;28;20250;-71
2022/09/01 13:13:38;;;;;;;8.93;2.00;;;15.90;99.90;;;;;;5074170;28;20235;-72
2022/09/01 13:16:11;;;;;;;7.28;1.75;;;15.90;99.90;;;;;;5076109;28;20187;-72
2022/09/01 13:18:42;;;;;;;8.95;1.98;;;15.90;99.90;;;;;;5075940;28;20819;-71
2022/09/01 13:21:16;;;;;;;8.15;2.38;;;15.80;99.90;;;;;;5075772;28;20552;-71
2022/09/01 13:23:47;;;;;;;4.95;1.73;;;15.80;99.90;;;;;;5075401;28;20282;-72
2022/09/01 13:26:17;;;;;;;5.95;1.75;;;15.80;99.90;;;;;;5075906;28;20200;-72